Latest Weather Observations for Mornington Island Airport

IDQ60801

Issued at 6:32 am EST Tuesday 24 January 2017 (issued every 30 minutes, with the page automatically refreshed every 10 minutes)

About weather observations | Map of weather stations | Latest weather observations for QLD | Other Formats
Station Details ID: 029182 Name: MORNINGTON ISLAND AIRPORT Lat: -16.66 Lon: 139.17 Height: 9.52 m
Data from the previous 72 hours. | See also: Recent months at Mornington Island Airport
Date/Time
EST
Temp
°C
App
Temp
°C
Dew
Point
°C
Rel
Hum
%
Delta-T
°C
Wind Press
QNH
hPa
Press
MSL
hPa
Rain since
9am
mm
Dir  Spd
km/h
Gust
km/h
Spd
kts
Gust
kts
24/06:30am 28.5 31.0 25.3 83 2.3 NNE 22 37 12 20 1008.0 1007.9 1.6
24/06:00am 28.7 31.7 24.7 79 2.8 NE 17 24 9 13 1007.5 1007.4 1.6
24/05:30am 28.6 31.2 24.6 79 2.8 NNE 19 28 10 15 1007.3 1007.2 1.6
24/05:00am 28.6 31.3 24.8 80 2.7 NE 19 30 10 16 1007.5 1007.4 1.6
24/04:30am 28.4 31.6 25.0 82 2.4 NE 17 26 9 14 1007.5 1007.4 1.6
24/04:00am 28.4 30.8 24.6 80 2.7 NNE 20 30 11 16 1007.6 1007.5 1.6
24/03:30am 28.0 31.0 24.6 82 2.4 NNE 17 24 9 13 1007.5 1007.4 1.6
24/03:00am 27.8 31.2 24.6 83 2.2 NE 15 20 8 11 1007.1 1007.0 1.6
24/02:30am 27.8 30.9 24.2 81 2.5 NE 15 22 8 12 1007.0 1006.9 1.6
24/02:00am 28.0 31.5 24.2 80 2.6 NE 13 24 7 13 1007.4 1007.3 1.6
24/01:30am 28.0 31.7 24.6 82 2.4 NE 13 17 7 9 1008.0 1007.9 1.6
24/01:00am 28.1 31.5 24.7 82 2.4 NE 15 19 8 10 1008.5 1008.4 1.6
24/12:30am 28.1 31.4 24.5 81 2.5 NE 15 20 8 11 1008.9 1008.8 1.6
24/12:00am 28.2 31.9 24.6 81 2.5 NE 13 22 7 12 1009.3 1009.2 1.6
 
Date/Time
EST
Temp
°C
App
Temp
°C
Dew
Point
°C
Rel
Hum
%
Delta-T
°C
Wind Press
QNH
hPa
Press
MSL
hPa
Rain since
9am
mm
Dir  Spd
km/h
Gust
km/h
Spd
kts
Gust
kts
23/11:30pm 28.5 31.5 24.7 80 2.7 NE 17 30 9 16 1009.4 1009.3 1.6
23/11:00pm 28.3 31.7 24.7 81 2.5 NE 15 20 8 11 1009.3 1009.2 1.6
23/10:30pm 28.3 31.5 24.9 82 2.4 NE 17 22 9 12 1009.0 1008.9 1.6
23/10:00pm 28.2 32.1 24.8 82 2.4 NE 13 19 7 10 1008.8 1008.7 1.6
23/09:30pm 28.1 31.5 24.7 82 2.4 NE 15 20 8 11 1008.7 1008.6 1.6
23/09:00pm 28.1 31.5 24.7 82 2.4 NE 15 20 8 11 1008.7 1008.6 1.6
23/08:30pm 28.2 31.7 24.8 82 2.4 NE 15 24 8 13 1008.5 1008.4 1.6
23/08:00pm 28.1 31.3 24.9 83 2.2 NNE 17 26 9 14 1007.9 1007.8 1.6
23/07:30pm 28.1 30.8 24.7 82 2.4 NE 19 30 10 16 1007.6 1007.5 1.6
23/07:00pm 27.5 31.0 25.5 89 1.4 NE 17 24 9 13 1007.5 1007.4 1.6
23/06:30pm 29.6 31.3 24.7 75 3.4 NE 24 41 13 22 1006.8 1006.7 1.6
23/06:00pm 30.1 31.3 23.8 69 4.4 NNE 24 35 13 19 1006.1 1006.0 1.6
23/05:30pm 30.6 31.7 25.0 72 3.9 NNE 28 39 15 21 1005.7 1005.6 1.6
23/05:00pm 30.8 32.6 24.9 71 4.2 NE 24 35 13 19 1005.4 1005.3 1.6
23/04:30pm 30.6 32.1 24.3 69 4.4 NNE 24 35 13 19 1005.5 1005.4 1.6
23/04:00pm 29.9 33.3 25.9 79 2.8 NE 19 30 10 16 1005.9 1005.8 1.6
23/03:30pm 30.7 32.7 25.1 72 3.9 NNE 24 35 13 19 1006.1 1006.0 1.6
23/03:00pm 30.1 31.4 24.7 73 3.8 NNE 26 39 14 21 1006.3 1006.2 1.6
23/02:30pm 30.6 31.3 24.3 69 4.4 NNE 28 39 15 21 1006.5 1006.4 1.6
23/02:06pm 31.1 31.0 24.2 66 4.8 NNE 32 50 17 27 1006.7 1006.6 1.6
23/02:00pm 31.0 32.3 25.8 74 3.7 NNE 30 41 16 22 1006.7 1006.6 1.6
23/01:30pm 30.7 32.8 25.3 73 3.8 NNE 24 35 13 19 1006.9 1006.8 1.4
23/01:00pm 28.8 32.7 26.6 88 1.6 NE 19 32 10 17 1007.3 1007.2 1.4
23/12:30pm 30.1 31.6 24.9 73 3.6 NNE 26 35 14 19 1007.6 1007.5 0.0
23/12:00pm 30.0 33.5 26.0 79 2.8 NNE 19 28 10 15 1007.7 1007.6 0.0
23/11:30am 30.2 33.2 25.5 76 3.3 NNE 20 33 11 18 1008.1 1008.0 0.0
23/11:00am 31.1 33.9 25.2 71 4.2 NNE 20 28 11 15 1008.3 1008.2 0.0
23/10:30am 30.9 34.0 25.7 74 3.7 NNE 20 32 11 17 1008.1 1008.0 0.0
23/10:00am 30.4 33.3 24.5 70 4.1 NE 17 24 9 13 1008.0 1007.9 0.0
23/09:30am 30.0 33.3 25.1 75 3.4 NNE 17 24 9 13 1007.7 1007.6 0.0
23/09:00am 29.5 31.6 24.1 72 3.8 NNE 20 28 11 15 1007.1 1007.0 11.6
23/08:30am 29.6 32.9 25.1 77 3.2 NE 17 24 9 13 1007.3 1007.2 11.6
23/08:00am 29.2 33.4 25.4 80 2.7 NE 13 19 7 10 1007.2 1007.1 11.6
23/07:30am 27.9 32.5 25.3 86 1.8 ENE 11 13 6 7 1007.1 1007.0 11.6
23/07:00am 26.4 31.4 25.4 94 0.7 ENE 9 9 5 5 1006.9 1006.8 11.6
23/06:30am 26.2 31.1 25.2 94 0.7 E 9 11 5 6 1006.5 1006.4 11.6
23/06:00am 26.5 31.9 25.5 94 0.7 E 7 9 4 5 1006.2 1006.1 11.6
23/05:30am 26.6 32.0 25.4 93 0.8 E 7 9 4 5 1006.0 1005.9 11.6
23/05:00am 26.5 31.7 25.1 92 1.0 E 7 9 4 5 1005.9 1005.8 11.6
23/04:30am 26.9 32.2 25.3 91 1.1 NE 7 13 4 7 1005.9 1005.8 11.6
23/04:00am 26.9 32.1 25.1 90 1.3 NE 7 9 4 5 1005.9 1005.8 11.6
23/03:30am 27.3 32.5 25.1 88 1.5 NNE 7 9 4 5 1006.0 1005.9 11.6
23/03:00am 27.5 31.5 25.1 87 1.7 NNE 13 24 7 13 1005.7 1005.6 11.6
23/02:30am 27.9 32.6 24.9 84 2.1 NNE 9 11 5 6 1006.0 1005.9 11.6
23/02:00am 28.2 31.6 25.2 84 2.1 N 17 22 9 12 1006.6 1006.5 11.6
23/01:30am 28.0 32.4 25.0 84 2.1 N 11 17 6 9 1006.9 1006.8 11.6
23/01:00am 28.2 32.6 25.0 83 2.2 N 11 15 6 8 1007.1 1007.0 11.6
23/12:30am 28.3 32.0 25.1 83 2.2 NNE 15 19 8 10 1007.5 1007.4 11.6
23/12:00am 28.5 32.3 25.3 83 2.3 N 15 20 8 11 1008.0 1007.9 11.6
 
Date/Time
EST
Temp
°C
App
Temp
°C
Dew
Point
°C
Rel
Hum
%
Delta-T
°C
Wind Press
QNH
hPa
Press
MSL
hPa
Rain since
9am
mm
Dir  Spd
km/h
Gust
km/h
Spd
kts
Gust
kts
22/11:30pm 28.3 33.0 25.5 85 2.0 NNE 11 17 6 9 1008.1 1008.0 11.6
22/11:00pm 27.8 33.3 25.6 88 1.6 NE 7 11 4 6 1008.0 1007.9 11.6
22/10:30pm 27.9 33.1 25.7 88 1.6 NE 9 11 5 6 1008.1 1008.0 11.6
22/10:00pm 27.9 33.1 25.7 88 1.6 NE 9 13 5 7 1008.0 1007.9 11.6
22/09:30pm 28.1 33.7 25.7 87 1.7 NE 7 11 4 6 1007.8 1007.7 11.6
22/09:00pm 28.3 33.6 25.9 87 1.7 NE 9 13 5 7 1007.6 1007.5 11.6
22/08:30pm 28.3 33.2 25.9 87 1.7 NE 11 19 6 10 1007.1 1007.0 11.6
22/08:00pm 28.7 33.0 26.1 86 1.9 NE 15 19 8 10 1006.8 1006.7 11.6
22/07:30pm 29.0 33.4 25.6 82 2.4 NE 13 20 7 11 1006.3 1006.2 11.6
22/07:00pm 29.6 34.2 26.0 81 2.6 NNE 13 20 7 11 1006.0 1005.9 11.6
22/06:30pm 30.4 35.1 26.1 78 3.1 NNE 13 19 7 10 1005.7 1005.6 11.6
22/06:00pm 30.5 34.6 25.8 76 3.3 NE 15 20 8 11 1005.5 1005.4 11.6
22/05:30pm 30.2 35.6 26.6 81 2.6 N 11 15 6 8 1005.8 1005.7 11.6
22/05:00pm 29.6 34.2 26.0 81 2.6 NNW 13 20 7 11 1005.9 1005.8 11.6
22/04:30pm 29.7 35.2 26.1 81 2.6 WSW 9 11 5 6 1005.5 1005.4 11.6
22/04:00pm 29.4 36.1 27.4 89 1.4 SW 7 9 4 5 1005.7 1005.6 11.6
22/03:30pm 29.7 34.2 25.2 77 3.2 ENE 11 20 6 11 1006.0 1005.9 11.4
22/03:00pm 30.7 35.7 26.0 76 3.4 E 11 15 6 8 1006.3 1006.2 11.4
22/02:30pm 30.0 34.6 26.6 82 2.4 NNE 15 20 8 11 1006.9 1006.8 11.4
22/02:00pm 27.7 31.5 25.3 87 1.7 NE 15 24 8 13 1007.4 1007.3 11.2
22/01:30pm 26.1 30.3 25.4 96 0.5 NE 13 19 7 10 1007.5 1007.4 11.2
22/01:00pm 27.4 29.9 24.7 85 1.9 N 20 39 11 21 1008.1 1008.0 2.8
22/12:57pm 27.9 30.6 24.1 80 2.6 N 17 39 9 21 1008.1 1008.0 2.8
22/12:30pm 28.3 34.3 26.1 88 1.6 NNE 6 9 3 5 1007.8 1007.7 2.8
22/12:00pm 28.1 32.4 25.5 86 1.8 N 13 19 7 10 1008.2 1008.1 0.8
22/11:30am 28.3 31.0 25.1 83 2.2 NW 20 26 11 14 1008.1 1008.0 0.8
22/11:00am 29.8 34.7 25.8 79 2.8 W 11 13 6 7 1008.3 1008.2 0.8
22/10:30am 29.0 34.4 26.0 84 2.1 W 9 13 5 7 1008.5 1008.4 0.6
22/10:00am 29.9 35.6 25.9 79 2.8 WNW 7 11 4 6 1008.8 1008.7 0.4
22/09:30am 30.3 35.1 25.1 73 3.7 W 9 11 5 6 1009.0 1008.9 0.0
22/09:00am 30.0 35.3 25.3 76 3.3 WNW 7 9 4 5 1009.1 1009.0 0.0
22/08:30am 29.7 34.9 24.8 75 3.4 WNW 6 7 3 4 1009.0 1008.9 0.0
22/08:00am 29.8 35.1 24.9 75 3.4 WNW 6 7 3 4 1008.9 1008.8 0.0
22/07:30am 29.9 35.4 25.6 78 3.0 WNW 7 9 4 5 1008.4 1008.3 0.0
22/07:00am 29.1 33.7 25.3 80 2.7 NW 11 13 6 7 1007.9 1007.8 0.0
22/06:30am 28.6 33.1 25.8 85 2.0 NW 13 17 7 9 1007.5 1007.4 0.0
22/06:00am 28.6 33.1 25.8 85 2.0 NW 13 17 7 9 1007.4 1007.3 0.0
22/05:30am 28.5 32.6 25.7 85 2.0 NW 15 17 8 9 1007.2 1007.1 0.0
22/05:00am 28.4 33.3 25.8 86 1.8 NW 11 15 6 8 1007.2 1007.1 0.0
22/04:30am 28.6 34.0 26.0 86 1.8 NNW 9 17 5 9 1007.1 1007.0 0.0
22/04:00am 28.7 33.5 25.7 84 2.1 NNW 11 17 6 9 1007.1 1007.0 0.0
22/03:30am 28.4 32.8 25.0 82 2.4 NNW 11 15 6 8 1007.4 1007.3 0.0
22/03:00am 28.7 32.7 25.1 81 2.5 NNW 13 20 7 11 1007.6 1007.5 0.0
22/02:30am 28.9 33.1 25.3 81 2.5 NNW 13 19 7 10 1007.9 1007.8 0.0
22/02:00am 28.9 33.2 25.5 82 2.4 NNW 13 15 7 8 1008.1 1008.0 0.0
22/01:30am 28.9 33.5 25.3 81 2.5 NNW 11 17 6 9 1008.3 1008.2 0.0
22/01:00am 28.7 33.8 25.5 83 2.3 NNW 9 13 5 7 1008.2 1008.1 0.0
22/12:30am 28.7 34.1 25.5 83 2.3 NNW 7 11 4 6 1008.3 1008.2 0.0
22/12:00am 28.7 33.9 25.7 84 2.1 NNW 9 11 5 6 1008.7 1008.6 0.0
 
Date/Time
EST
Temp
°C
App
Temp
°C
Dew
Point
°C
Rel
Hum
%
Delta-T
°C
Wind Press
QNH
hPa
Press
MSL
hPa
Rain since
9am
mm
Dir  Spd
km/h
Gust
km/h
Spd
kts
Gust
kts
21/11:30pm 28.3 33.4 25.5 85 2.0 N 9 13 5 7 1009.0 1008.9 0.0
21/11:00pm 28.3 34.1 25.7 86 1.8 NE 6 7 3 4 1009.0 1008.9 0.0
21/10:30pm 28.4 34.5 25.6 85 2.0 N 4 6 2 3 1008.9 1008.8 0.0
21/10:00pm 28.3 33.4 25.5 85 2.0 NNE 9 15 5 8 1008.4 1008.3 0.0
21/09:30pm 28.5 33.7 25.7 85 2.0 NNE 9 11 5 6 1008.2 1008.1 0.0
21/09:00pm 28.9 34.5 25.7 83 2.3 NE 7 9 4 5 1008.0 1007.9 0.0
21/08:30pm 28.9 34.1 25.7 83 2.3 NNE 9 11 5 6 1007.3 1007.2 0.0
21/08:00pm 29.2 34.1 25.8 82 2.4 N 11 13 6 7 1006.8 1006.7 0.0
21/07:30pm 29.6 34.5 25.8 80 2.7 N 11 15 6 8 1006.6 1006.5 0.0
21/07:00pm 30.2 34.2 25.0 73 3.7 N 13 17 7 9 1006.1 1006.0 0.0
21/06:30pm 30.8 34.2 24.7 70 4.3 N 15 19 8 10 1005.9 1005.8 0.0
21/06:00pm 31.2 34.2 24.6 68 4.6 NNW 17 24 9 13 1005.7 1005.6 0.0
21/05:30pm 31.5 35.6 24.6 67 4.8 N 11 17 6 9 1005.7 1005.6 0.0
21/05:00pm 31.7 35.6 25.5 69 4.4 NNW 15 20 8 11 1005.8 1005.7 0.0
21/04:30pm 32.1 36.1 26.2 71 4.2 NNW 17 20 9 11 1006.1 1006.0 0.0
21/04:00pm 31.6 35.7 25.7 71 4.2 NW 15 19 8 10 1006.2 1006.1 0.0
21/03:30pm 31.4 35.8 26.2 74 3.7 NW 15 19 8 10 1006.5 1006.4 0.0
21/03:00pm 31.1 35.7 24.7 68 4.5 W 9 15 5 8 1006.9 1006.8 0.0
21/02:30pm 30.1 34.5 24.5 72 3.9 E 9 13 5 7 1007.4 1007.3 0.0
21/02:00pm 27.9 31.9 25.1 85 2.0 ESE 13 17 7 9 1007.8 1007.7 0.0
21/01:30pm 27.3 31.0 25.1 88 1.5 E 15 20 8 11 1008.4 1008.3 0.0
21/01:00pm 28.9 32.2 24.5 77 3.1 N 15 28 8 15 1008.6 1008.5 0.0
21/12:30pm 30.5 34.4 26.0 77 3.2 NW 17 20 9 11 1008.3 1008.2 0.0
21/12:00pm 31.5 35.6 26.3 74 3.7 NW 17 20 9 11 1008.5 1008.4 0.0
21/11:30am 31.4 35.4 26.2 74 3.7 NW 17 20 9 11 1009.1 1009.0 0.0
21/11:00am 30.7 34.2 24.8 71 4.1 NW 15 20 8 11 1009.2 1009.1 0.0
21/10:30am 30.9 34.8 25.5 73 3.8 NW 15 17 8 9 1009.4 1009.3 0.0
21/10:00am 30.8 34.5 25.8 74 3.6 NW 17 19 9 10 1009.3 1009.2 0.0
21/09:30am 30.8 35.5 26.7 79 2.9 NW 15 17 8 9 1009.5 1009.4 0.0
21/09:00am 29.9 33.8 25.4 77 3.2 NW 15 17 8 9 1009.7 1009.6 0.0
21/08:30am 30.0 33.8 25.3 76 3.3 NW 15 20 8 11 1009.4 1009.3 0.0
21/08:00am 29.6 33.1 25.4 78 3.0 NNW 17 20 9 11 1009.0 1008.9 0.0
21/07:30am 29.5 33.9 25.7 80 2.7 NW 13 19 7 10 1009.0 1008.9 0.0
21/07:00am 28.8 32.9 25.2 81 2.5 NNW 13 17 7 9 1008.6 1008.5 0.0

Other Formats:

Comma delimited format used in spreadsheet applications
http://www.bom.gov.au/fwo/IDQ60801/IDQ60801.94254.axf

JavaScript Object Notation format (JSON) in row-major order
http://www.bom.gov.au/fwo/IDQ60801/IDQ60801.94254.json